sensor_id;sensor_type;location;lat;lon;timestamp;P1;durP1;ratioP1;P2;durP2;ratioP2
65289;SDS011;51893;59.754;10.110;2023-02-04T00:00:39;9.80;;;5.30;;
65289;SDS011;51893;59.754;10.110;2023-02-04T00:03:26;5.70;;;3.50;;
65289;SDS011;51893;59.754;10.110;2023-02-04T00:05:54;4.10;;;2.20;;
65289;SDS011;51893;59.754;10.110;2023-02-04T00:08:22;11.40;;;5.60;;
65289;SDS011;51893;59.754;10.110;2023-02-04T00:10:50;5.90;;;4.10;;
65289;SDS011;51893;59.754;10.110;2023-02-04T00:13:18;7.90;;;4.30;;
65289;SDS011;51893;59.754;10.110;2023-02-04T00:15:46;5.90;;;3.50;;
65289;SDS011;51893;59.754;10.110;2023-02-04T00:18:14;8.50;;;3.90;;
65289;SDS011;51893;59.754;10.110;2023-02-04T00:20:42;6.50;;;4.10;;
65289;SDS011;51893;59.754;10.110;2023-02-04T00:23:10;7.40;;;3.80;;
65289;SDS011;51893;59.754;10.110;2023-02-04T00:25:39;5.60;;;3.80;;
65289;SDS011;51893;59.754;10.110;2023-02-04T00:28:07;5.30;;;3.50;;
65289;SDS011;51893;59.754;10.110;2023-02-04T00:30:36;8.60;;;3.90;;
65289;SDS011;51893;59.754;10.110;2023-02-04T00:33:04;4.60;;;3.20;;
65289;SDS011;51893;59.754;10.110;2023-02-04T00:35:32;5.80;;;3.80;;
65289;SDS011;51893;59.754;10.110;2023-02-04T00:38:00;7.60;;;4.50;;
65289;SDS011;51893;59.754;10.110;2023-02-04T00:40:28;11.50;;;5.40;;
65289;SDS011;51893;59.754;10.110;2023-02-04T00:42:57;7.30;;;4.30;;
65289;SDS011;51893;59.754;10.110;2023-02-04T00:45:24;7.50;;;4.10;;
65289;SDS011;51893;59.754;10.110;2023-02-04T00:47:53;7.20;;;4.20;;
65289;SDS011;51893;59.754;10.110;2023-02-04T00:50:21;6.60;;;2.80;;
65289;SDS011;51893;59.754;10.110;2023-02-04T00:52:50;3.80;;;2.70;;
65289;SDS011;51893;59.754;10.110;2023-02-04T00:55:18;2.60;;;2.00;;
65289;SDS011;51893;59.754;10.110;2023-02-04T00:57:47;2.30;;;1.40;;
65289;SDS011;51893;59.754;10.110;2023-02-04T01:00:16;1.70;;;1.50;;
65289;SDS011;51893;59.754;10.110;2023-02-04T01:02:47;2.10;;;1.40;;
65289;SDS011;51893;59.754;10.110;2023-02-04T01:05:15;2.20;;;1.70;;
65289;SDS011;51893;59.754;10.110;2023-02-04T01:07:43;2.40;;;1.60;;
65289;SDS011;51893;59.754;10.110;2023-02-04T01:10:11;2.80;;;1.40;;
65289;SDS011;51893;59.754;10.110;2023-02-04T01:12:40;1.80;;;1.70;;
65289;SDS011;51893;59.754;10.110;2023-02-04T01:15:08;2.50;;;1.60;;
65289;SDS011;51893;59.754;10.110;2023-02-04T01:17:38;135.60;;;31.70;;
65289;SDS011;51893;59.754;10.110;2023-02-04T01:20:08;259.60;;;60.40;;
65289;SDS011;51893;59.754;10.110;2023-02-04T01:22:37;445.30;;;99.90;;
65289;SDS011;51893;59.754;10.110;2023-02-04T01:25:06;173.00;;;37.70;;
65289;SDS011;51893;59.754;10.110;2023-02-04T01:27:35;324.00;;;64.20;;
65289;SDS011;51893;59.754;10.110;2023-02-04T01:30:05;112.90;;;23.70;;
65289;SDS011;51893;59.754;10.110;2023-02-04T01:32:35;50.80;;;14.60;;
65289;SDS011;51893;59.754;10.110;2023-02-04T01:35:03;9.30;;;4.40;;
65289;SDS011;51893;59.754;10.110;2023-02-04T01:37:34;6.80;;;3.40;;
65289;SDS011;51893;59.754;10.110;2023-02-04T01:40:03;5.70;;;3.50;;
65289;SDS011;51893;59.754;10.110;2023-02-04T01:42:32;5.70;;;3.60;;
65289;SDS011;51893;59.754;10.110;2023-02-04T01:45:04;7.60;;;4.60;;
65289;SDS011;51893;59.754;10.110;2023-02-04T01:47:33;3.30;;;2.30;;
65289;SDS011;51893;59.754;10.110;2023-02-04T01:50:02;2.40;;;1.20;;
65289;SDS011;51893;59.754;10.110;2023-02-04T01:52:34;2.30;;;2.10;;
65289;SDS011;51893;59.754;10.110;2023-02-04T01:55:12;1.40;;;1.30;;
65289;SDS011;51893;59.754;10.110;2023-02-04T01:57:42;1.50;;;1.40;;
65289;SDS011;51893;59.754;10.110;2023-02-04T02:00:15;1.30;;;1.20;;
65289;SDS011;51893;59.754;10.110;2023-02-04T02:02:49;3.60;;;1.40;;
65289;SDS011;51893;59.754;10.110;2023-02-04T02:05:22;2.50;;;1.70;;
65289;SDS011;51893;59.754;10.110;2023-02-04T02:08:04;1.50;;;1.40;;
65289;SDS011;51893;59.754;10.110;2023-02-04T02:10:34;1.50;;;1.20;;
65289;SDS011;51893;59.754;10.110;2023-02-04T02:13:05;2.50;;;1.30;;
65289;SDS011;51893;59.754;10.110;2023-02-04T02:15:37;1.40;;;1.30;;
65289;SDS011;51893;59.754;10.110;2023-02-04T02:18:07;2.10;;;1.70;;
65289;SDS011;51893;59.754;10.110;2023-02-04T02:20:36;2.60;;;2.00;;
65289;SDS011;51893;59.754;10.110;2023-02-04T02:23:47;2.60;;;1.60;;
65289;SDS011;51893;59.754;10.110;2023-02-04T02:26:16;1.70;;;1.30;;
65289;SDS011;51893;59.754;10.110;2023-02-04T02:28:46;3.20;;;2.10;;
65289;SDS011;51893;59.754;10.110;2023-02-04T02:31:18;0.90;;;0.90;;
65289;SDS011;51893;59.754;10.110;2023-02-04T02:33:48;5.70;;;3.70;;
65289;SDS011;51893;59.754;10.110;2023-02-04T02:36:16;3.60;;;2.20;;
65289;SDS011;51893;59.754;10.110;2023-02-04T02:38:44;3.40;;;2.00;;
65289;SDS011;51893;59.754;10.110;2023-02-04T02:41:13;1.70;;;1.60;;
65289;SDS011;51893;59.754;10.110;2023-02-04T02:43:40;2.70;;;1.80;;
65289;SDS011;51893;59.754;10.110;2023-02-04T02:46:09;1.60;;;1.50;;
65289;SDS011;51893;59.754;10.110;2023-02-04T02:48:37;2.50;;;2.00;;
65289;SDS011;51893;59.754;10.110;2023-02-04T02:51:05;3.30;;;2.00;;
65289;SDS011;51893;59.754;10.110;2023-02-04T02:53:34;2.10;;;1.90;;
65289;SDS011;51893;59.754;10.110;2023-02-04T02:56:02;5.00;;;2.20;;
65289;SDS011;51893;59.754;10.110;2023-02-04T02:58:34;2.90;;;2.10;;
65289;SDS011;51893;59.754;10.110;2023-02-04T03:01:07;3.60;;;2.10;;
65289;SDS011;51893;59.754;10.110;2023-02-04T03:03:43;4.70;;;2.00;;
65289;SDS011;51893;59.754;10.110;2023-02-04T03:06:18;4.30;;;2.20;;
65289;SDS011;51893;59.754;10.110;2023-02-04T03:08:51;6.40;;;3.00;;
65289;SDS011;51893;59.754;10.110;2023-02-04T03:11:22;7.70;;;3.60;;
65289;SDS011;51893;59.754;10.110;2023-02-04T03:13:52;4.50;;;2.50;;
65289;SDS011;51893;59.754;10.110;2023-02-04T03:16:20;5.00;;;2.00;;
65289;SDS011;51893;59.754;10.110;2023-02-04T03:18:49;5.30;;;2.50;;
65289;SDS011;51893;59.754;10.110;2023-02-04T03:21:19;1.40;;;1.20;;
65289;SDS011;51893;59.754;10.110;2023-02-04T03:23:47;4.70;;;2.80;;
65289;SDS011;51893;59.754;10.110;2023-02-04T03:26:16;2.20;;;1.50;;
65289;SDS011;51893;59.754;10.110;2023-02-04T03:28:44;5.30;;;2.80;;
65289;SDS011;51893;59.754;10.110;2023-02-04T03:31:12;3.10;;;2.80;;
65289;SDS011;51893;59.754;10.110;2023-02-04T03:33:41;2.70;;;2.20;;
65289;SDS011;51893;59.754;10.110;2023-02-04T03:36:10;2.80;;;1.90;;
65289;SDS011;51893;59.754;10.110;2023-02-04T03:38:38;1.70;;;1.60;;
65289;SDS011;51893;59.754;10.110;2023-02-04T03:41:08;3.20;;;2.30;;
65289;SDS011;51893;59.754;10.110;2023-02-04T03:43:36;2.50;;;1.50;;
65289;SDS011;51893;59.754;10.110;2023-02-04T03:46:04;3.90;;;1.50;;
65289;SDS011;51893;59.754;10.110;2023-02-04T03:48:32;1.90;;;1.50;;
65289;SDS011;51893;59.754;10.110;2023-02-04T03:51:01;4.30;;;1.80;;
65289;SDS011;51893;59.754;10.110;2023-02-04T03:53:29;2.40;;;1.70;;
65289;SDS011;51893;59.754;10.110;2023-02-04T03:55:57;2.80;;;1.60;;
65289;SDS011;51893;59.754;10.110;2023-02-04T03:58:25;2.00;;;1.70;;
65289;SDS011;51893;59.754;10.110;2023-02-04T04:00:53;3.50;;;1.30;;
65289;SDS011;51893;59.754;10.110;2023-02-04T04:03:22;1.50;;;1.40;;
65289;SDS011;51893;59.754;10.110;2023-02-04T04:05:50;2.10;;;1.30;;
65289;SDS011;51893;59.754;10.110;2023-02-04T04:08:18;2.40;;;1.60;;
65289;SDS011;51893;59.754;10.110;2023-02-04T04:10:46;1.50;;;1.40;;
65289;SDS011;51893;59.754;10.110;2023-02-04T04:13:15;1.60;;;1.40;;
65289;SDS011;51893;59.754;10.110;2023-02-04T04:15:42;2.20;;;1.70;;
65289;SDS011;51893;59.754;10.110;2023-02-04T04:18:10;2.00;;;1.80;;
65289;SDS011;51893;59.754;10.110;2023-02-04T04:20:38;1.80;;;1.40;;
65289;SDS011;51893;59.754;10.110;2023-02-04T04:23:06;1.90;;;1.60;;
65289;SDS011;51893;59.754;10.110;2023-02-04T04:25:34;1.70;;;1.60;;
65289;SDS011;51893;59.754;10.110;2023-02-04T04:28:01;2.00;;;1.80;;
65289;SDS011;51893;59.754;10.110;2023-02-04T04:30:30;3.30;;;2.00;;
65289;SDS011;51893;59.754;10.110;2023-02-04T04:32:58;2.00;;;1.80;;
65289;SDS011;51893;59.754;10.110;2023-02-04T04:35:26;2.60;;;2.00;;
65289;SDS011;51893;59.754;10.110;2023-02-04T04:37:54;2.30;;;2.10;;
65289;SDS011;51893;59.754;10.110;2023-02-04T04:40:24;3.00;;;2.20;;
65289;SDS011;51893;59.754;10.110;2023-02-04T04:42:52;2.90;;;1.90;;
65289;SDS011;51893;59.754;10.110;2023-02-04T04:45:20;3.30;;;1.90;;
65289;SDS011;51893;59.754;10.110;2023-02-04T04:47:50;3.10;;;1.70;;
65289;SDS011;51893;59.754;10.110;2023-02-04T04:50:19;1.90;;;1.70;;
65289;SDS011;51893;59.754;10.110;2023-02-04T04:52:47;2.10;;;1.70;;
65289;SDS011;51893;59.754;10.110;2023-02-04T04:55:16;2.90;;;2.00;;
65289;SDS011;51893;59.754;10.110;2023-02-04T04:57:44;1.90;;;1.70;;
65289;SDS011;51893;59.754;10.110;2023-02-04T05:00:17;3.10;;;2.40;;
65289;SDS011;51893;59.754;10.110;2023-02-04T05:02:47;4.90;;;2.40;;
65289;SDS011;51893;59.754;10.110;2023-02-04T05:05:15;2.90;;;2.00;;
65289;SDS011;51893;59.754;10.110;2023-02-04T05:07:43;2.30;;;1.70;;
65289;SDS011;51893;59.754;10.110;2023-02-04T05:10:11;3.10;;;2.20;;
65289;SDS011;51893;59.754;10.110;2023-02-04T05:12:39;5.40;;;2.10;;
65289;SDS011;51893;59.754;10.110;2023-02-04T05:15:07;2.40;;;1.50;;
65289;SDS011;51893;59.754;10.110;2023-02-04T05:17:36;3.80;;;2.20;;
65289;SDS011;51893;59.754;10.110;2023-02-04T05:20:04;5.40;;;2.30;;
65289;SDS011;51893;59.754;10.110;2023-02-04T05:22:32;4.60;;;2.30;;
65289;SDS011;51893;59.754;10.110;2023-02-04T05:25:00;2.90;;;2.00;;
65289;SDS011;51893;59.754;10.110;2023-02-04T05:27:28;2.90;;;2.00;;
65289;SDS011;51893;59.754;10.110;2023-02-04T05:29:56;9.00;;;2.20;;
65289;SDS011;51893;59.754;10.110;2023-02-04T05:32:24;3.90;;;2.10;;
65289;SDS011;51893;59.754;10.110;2023-02-04T05:34:52;2.80;;;1.80;;
65289;SDS011;51893;59.754;10.110;2023-02-04T05:37:21;5.80;;;1.90;;
65289;SDS011;51893;59.754;10.110;2023-02-04T05:39:49;2.10;;;1.90;;
65289;SDS011;51893;59.754;10.110;2023-02-04T05:42:17;2.80;;;2.00;;
65289;SDS011;51893;59.754;10.110;2023-02-04T05:44:45;3.50;;;1.80;;
65289;SDS011;51893;59.754;10.110;2023-02-04T05:47:13;3.80;;;2.00;;
65289;SDS011;51893;59.754;10.110;2023-02-04T05:49:41;5.50;;;1.90;;
65289;SDS011;51893;59.754;10.110;2023-02-04T05:52:10;4.50;;;2.00;;
65289;SDS011;51893;59.754;10.110;2023-02-04T05:54:38;2.50;;;1.70;;
65289;SDS011;51893;59.754;10.110;2023-02-04T05:57:07;3.10;;;1.80;;
65289;SDS011;51893;59.754;10.110;2023-02-04T05:59:35;2.10;;;1.60;;
65289;SDS011;51893;59.754;10.110;2023-02-04T06:02:03;2.70;;;1.60;;
65289;SDS011;51893;59.754;10.110;2023-02-04T06:04:30;2.00;;;1.70;;
65289;SDS011;51893;59.754;10.110;2023-02-04T06:06:59;1.70;;;1.60;;
65289;SDS011;51893;59.754;10.110;2023-02-04T06:09:28;2.90;;;2.40;;
65289;SDS011;51893;59.754;10.110;2023-02-04T06:11:56;4.60;;;2.40;;
65289;SDS011;51893;59.754;10.110;2023-02-04T06:14:24;2.20;;;1.60;;
65289;SDS011;51893;59.754;10.110;2023-02-04T06:16:52;2.60;;;2.40;;
65289;SDS011;51893;59.754;10.110;2023-02-04T06:19:20;4.40;;;2.50;;
65289;SDS011;51893;59.754;10.110;2023-02-04T06:21:48;5.50;;;2.60;;
65289;SDS011;51893;59.754;10.110;2023-02-04T06:24:17;4.30;;;2.50;;
65289;SDS011;51893;59.754;10.110;2023-02-04T06:26:46;5.20;;;2.50;;
65289;SDS011;51893;59.754;10.110;2023-02-04T06:29:15;3.50;;;2.50;;
65289;SDS011;51893;59.754;10.110;2023-02-04T06:31:42;3.50;;;2.20;;
65289;SDS011;51893;59.754;10.110;2023-02-04T06:34:11;5.40;;;2.20;;
65289;SDS011;51893;59.754;10.110;2023-02-04T06:36:39;5.50;;;2.50;;
65289;SDS011;51893;59.754;10.110;2023-02-04T06:39:07;3.00;;;2.30;;
65289;SDS011;51893;59.754;10.110;2023-02-04T06:41:35;3.80;;;2.40;;
65289;SDS011;51893;59.754;10.110;2023-02-04T06:44:03;5.00;;;3.00;;
65289;SDS011;51893;59.754;10.110;2023-02-04T06:46:32;5.10;;;2.20;;
65289;SDS011;51893;59.754;10.110;2023-02-04T06:49:00;4.20;;;2.90;;
65289;SDS011;51893;59.754;10.110;2023-02-04T06:51:28;6.30;;;2.90;;
65289;SDS011;51893;59.754;10.110;2023-02-04T06:53:57;7.30;;;3.20;;
65289;SDS011;51893;59.754;10.110;2023-02-04T06:56:25;8.40;;;3.90;;
65289;SDS011;51893;59.754;10.110;2023-02-04T06:58:55;6.00;;;3.70;;
65289;SDS011;51893;59.754;10.110;2023-02-04T07:01:23;5.90;;;3.30;;
65289;SDS011;51893;59.754;10.110;2023-02-04T07:03:51;8.00;;;3.40;;
65289;SDS011;51893;59.754;10.110;2023-02-04T07:06:19;6.80;;;3.20;;
65289;SDS011;51893;59.754;10.110;2023-02-04T07:08:47;4.70;;;2.90;;
65289;SDS011;51893;59.754;10.110;2023-02-04T07:11:16;5.20;;;3.40;;
65289;SDS011;51893;59.754;10.110;2023-02-04T07:13:45;6.70;;;3.50;;
65289;SDS011;51893;59.754;10.110;2023-02-04T07:16:14;5.20;;;3.10;;
65289;SDS011;51893;59.754;10.110;2023-02-04T07:18:44;6.00;;;3.40;;
65289;SDS011;51893;59.754;10.110;2023-02-04T07:21:12;5.90;;;2.90;;
65289;SDS011;51893;59.754;10.110;2023-02-04T07:23:40;4.60;;;3.10;;
65289;SDS011;51893;59.754;10.110;2023-02-04T07:26:07;5.60;;;3.50;;
65289;SDS011;51893;59.754;10.110;2023-02-04T07:28:35;7.60;;;4.20;;
65289;SDS011;51893;59.754;10.110;2023-02-04T07:31:03;5.60;;;3.80;;
65289;SDS011;51893;59.754;10.110;2023-02-04T07:33:31;7.50;;;4.20;;
65289;SDS011;51893;59.754;10.110;2023-02-04T07:36:00;6.70;;;3.70;;
65289;SDS011;51893;59.754;10.110;2023-02-04T07:38:28;7.90;;;3.50;;
65289;SDS011;51893;59.754;10.110;2023-02-04T07:40:56;7.60;;;3.80;;
65289;SDS011;51893;59.754;10.110;2023-02-04T07:43:24;6.20;;;4.10;;
65289;SDS011;51893;59.754;10.110;2023-02-04T07:45:52;13.20;;;5.20;;
65289;SDS011;51893;59.754;10.110;2023-02-04T07:48:21;10.50;;;5.20;;
65289;SDS011;51893;59.754;10.110;2023-02-04T07:50:48;10.40;;;5.10;;
65289;SDS011;51893;59.754;10.110;2023-02-04T07:53:17;9.20;;;4.40;;
65289;SDS011;51893;59.754;10.110;2023-02-04T07:55:44;4.10;;;3.10;;
65289;SDS011;51893;59.754;10.110;2023-02-04T07:58:13;6.50;;;3.90;;
65289;SDS011;51893;59.754;10.110;2023-02-04T08:00:41;11.30;;;5.10;;
65289;SDS011;51893;59.754;10.110;2023-02-04T08:03:09;9.10;;;4.40;;
65289;SDS011;51893;59.754;10.110;2023-02-04T08:05:38;8.90;;;5.50;;
65289;SDS011;51893;59.754;10.110;2023-02-04T08:08:06;13.70;;;6.30;;
65289;SDS011;51893;59.754;10.110;2023-02-04T08:10:34;18.80;;;6.80;;
65289;SDS011;51893;59.754;10.110;2023-02-04T08:13:03;13.90;;;6.00;;
65289;SDS011;51893;59.754;10.110;2023-02-04T08:15:31;10.20;;;5.20;;
65289;SDS011;51893;59.754;10.110;2023-02-04T08:17:59;6.40;;;4.50;;
65289;SDS011;51893;59.754;10.110;2023-02-04T08:20:27;12.30;;;5.30;;
65289;SDS011;51893;59.754;10.110;2023-02-04T08:22:55;11.00;;;5.40;;
65289;SDS011;51893;59.754;10.110;2023-02-04T08:25:24;10.60;;;5.70;;
65289;SDS011;51893;59.754;10.110;2023-02-04T08:27:52;14.40;;;9.10;;
65289;SDS011;51893;59.754;10.110;2023-02-04T08:30:20;11.30;;;7.30;;
65289;SDS011;51893;59.754;10.110;2023-02-04T08:32:57;11.80;;;6.70;;
65289;SDS011;51893;59.754;10.110;2023-02-04T08:35:25;14.60;;;8.00;;
65289;SDS011;51893;59.754;10.110;2023-02-04T08:37:54;10.90;;;6.30;;
65289;SDS011;51893;59.754;10.110;2023-02-04T08:40:22;7.30;;;4.70;;
65289;SDS011;51893;59.754;10.110;2023-02-04T08:42:52;13.90;;;7.70;;
65289;SDS011;51893;59.754;10.110;2023-02-04T08:45:19;11.20;;;6.80;;
65289;SDS011;51893;59.754;10.110;2023-02-04T08:47:47;11.20;;;6.60;;
65289;SDS011;51893;59.754;10.110;2023-02-04T08:50:16;14.40;;;7.60;;
65289;SDS011;51893;59.754;10.110;2023-02-04T08:52:45;15.00;;;8.20;;
65289;SDS011;51893;59.754;10.110;2023-02-04T08:55:13;13.10;;;8.50;;
65289;SDS011;51893;59.754;10.110;2023-02-04T08:57:42;15.50;;;9.30;;
65289;SDS011;51893;59.754;10.110;2023-02-04T09:00:11;17.50;;;9.80;;
65289;SDS011;51893;59.754;10.110;2023-02-04T09:02:39;16.90;;;8.10;;
65289;SDS011;51893;59.754;10.110;2023-02-04T09:05:08;15.50;;;7.40;;
65289;SDS011;51893;59.754;10.110;2023-02-04T09:07:37;10.30;;;5.80;;
65289;SDS011;51893;59.754;10.110;2023-02-04T09:10:06;9.70;;;5.50;;
65289;SDS011;51893;59.754;10.110;2023-02-04T09:12:36;6.30;;;4.00;;
65289;SDS011;51893;59.754;10.110;2023-02-04T09:15:04;8.40;;;3.90;;
65289;SDS011;51893;59.754;10.110;2023-02-04T09:17:33;5.90;;;3.40;;
65289;SDS011;51893;59.754;10.110;2023-02-04T09:20:01;9.30;;;5.10;;
65289;SDS011;51893;59.754;10.110;2023-02-04T09:22:30;8.00;;;4.40;;
65289;SDS011;51893;59.754;10.110;2023-02-04T09:25:01;9.50;;;4.90;;
65289;SDS011;51893;59.754;10.110;2023-02-04T09:27:31;3.20;;;2.20;;
65289;SDS011;51893;59.754;10.110;2023-02-04T09:30:00;7.30;;;4.80;;
65289;SDS011;51893;59.754;10.110;2023-02-04T09:32:28;8.90;;;5.60;;
65289;SDS011;51893;59.754;10.110;2023-02-04T09:34:56;7.90;;;5.30;;
65289;SDS011;51893;59.754;10.110;2023-02-04T09:37:24;9.30;;;5.30;;
65289;SDS011;51893;59.754;10.110;2023-02-04T09:39:54;8.80;;;5.10;;
65289;SDS011;51893;59.754;10.110;2023-02-04T09:42:25;7.70;;;5.00;;
65289;SDS011;51893;59.754;10.110;2023-02-04T09:44:55;13.70;;;6.50;;
65289;SDS011;51893;59.754;10.110;2023-02-04T09:47:25;9.80;;;5.60;;
65289;SDS011;51893;59.754;10.110;2023-02-04T09:49:53;11.90;;;6.30;;
65289;SDS011;51893;59.754;10.110;2023-02-04T09:52:22;7.70;;;4.40;;
65289;SDS011;51893;59.754;10.110;2023-02-04T09:54:51;10.10;;;5.50;;
65289;SDS011;51893;59.754;10.110;2023-02-04T09:57:20;11.00;;;5.60;;
65289;SDS011;51893;59.754;10.110;2023-02-04T09:59:48;9.40;;;4.90;;
65289;SDS011;51893;59.754;10.110;2023-02-04T10:02:23;10.40;;;5.70;;
65289;SDS011;51893;59.754;10.110;2023-02-04T10:04:56;13.20;;;6.00;;
65289;SDS011;51893;59.754;10.110;2023-02-04T10:07:25;14.50;;;8.20;;
65289;SDS011;51893;59.754;10.110;2023-02-04T10:09:54;9.50;;;5.00;;
65289;SDS011;51893;59.754;10.110;2023-02-04T10:12:24;8.60;;;5.50;;
65289;SDS011;51893;59.754;10.110;2023-02-04T10:14:54;6.60;;;4.20;;
65289;SDS011;51893;59.754;10.110;2023-02-04T10:17:21;15.00;;;6.40;;
65289;SDS011;51893;59.754;10.110;2023-02-04T10:19:50;10.10;;;5.20;;
65289;SDS011;51893;59.754;10.110;2023-02-04T10:22:20;7.70;;;5.10;;
65289;SDS011;51893;59.754;10.110;2023-02-04T10:24:49;8.00;;;5.40;;
65289;SDS011;51893;59.754;10.110;2023-02-04T10:27:17;9.70;;;6.10;;
65289;SDS011;51893;59.754;10.110;2023-02-04T10:29:56;8.10;;;5.00;;
65289;SDS011;51893;59.754;10.110;2023-02-04T10:32:31;8.20;;;5.00;;
65289;SDS011;51893;59.754;10.110;2023-02-04T10:35:01;8.60;;;5.10;;
65289;SDS011;51893;59.754;10.110;2023-02-04T10:37:30;4.00;;;2.70;;
65289;SDS011;51893;59.754;10.110;2023-02-04T10:39:59;9.80;;;5.60;;
65289;SDS011;51893;59.754;10.110;2023-02-04T10:42:28;9.70;;;5.50;;
65289;SDS011;51893;59.754;10.110;2023-02-04T10:44:58;8.20;;;4.70;;
65289;SDS011;51893;59.754;10.110;2023-02-04T10:47:28;3.50;;;2.90;;
65289;SDS011;51893;59.754;10.110;2023-02-04T10:50:14;4.50;;;3.40;;
65289;SDS011;51893;59.754;10.110;2023-02-04T10:52:48;7.10;;;3.40;;
65289;SDS011;51893;59.754;10.110;2023-02-04T10:55:21;6.60;;;3.60;;
65289;SDS011;51893;59.754;10.110;2023-02-04T10:57:52;7.70;;;4.50;;
65289;SDS011;51893;59.754;10.110;2023-02-04T11:00:23;8.40;;;5.00;;
65289;SDS011;51893;59.754;10.110;2023-02-04T11:03:16;13.10;;;4.80;;
65289;SDS011;51893;59.754;10.110;2023-02-04T11:05:48;7.30;;;4.30;;
65289;SDS011;51893;59.754;10.110;2023-02-04T11:11:04;5.10;;;3.30;;
65289;SDS011;51893;59.754;10.110;2023-02-04T11:19:05;12.00;;;6.90;;
65289;SDS011;51893;59.754;10.110;2023-02-04T11:26:49;8.50;;;4.80;;
65289;SDS011;51893;59.754;10.110;2023-02-04T11:29:45;10.10;;;5.30;;
65289;SDS011;51893;59.754;10.110;2023-02-04T11:32:30;11.50;;;5.10;;
65289;SDS011;51893;59.754;10.110;2023-02-04T11:37:42;9.50;;;5.50;;
65289;SDS011;51893;59.754;10.110;2023-02-04T11:40:30;8.40;;;4.30;;
65289;SDS011;51893;59.754;10.110;2023-02-04T11:43:09;6.30;;;3.70;;
65289;SDS011;51893;59.754;10.110;2023-02-04T11:45:43;8.20;;;4.90;;
65289;SDS011;51893;59.754;10.110;2023-02-04T11:48:16;11.40;;;5.60;;
65289;SDS011;51893;59.754;10.110;2023-02-04T11:50:57;7.20;;;4.40;;
65289;SDS011;51893;59.754;10.110;2023-02-04T11:53:29;5.70;;;4.00;;
65289;SDS011;51893;59.754;10.110;2023-02-04T11:55:59;5.50;;;4.20;;
65289;SDS011;51893;59.754;10.110;2023-02-04T11:58:31;8.30;;;4.80;;
65289;SDS011;51893;59.754;10.110;2023-02-04T12:01:00;7.60;;;5.00;;
65289;SDS011;51893;59.754;10.110;2023-02-04T12:03:30;6.80;;;4.70;;
65289;SDS011;51893;59.754;10.110;2023-02-04T12:06:02;9.20;;;4.60;;
65289;SDS011;51893;59.754;10.110;2023-02-04T12:08:33;7.20;;;4.80;;
65289;SDS011;51893;59.754;10.110;2023-02-04T12:13:49;7.50;;;4.80;;
65289;SDS011;51893;59.754;10.110;2023-02-04T12:16:20;10.50;;;5.50;;
65289;SDS011;51893;59.754;10.110;2023-02-04T12:18:51;8.70;;;5.10;;
65289;SDS011;51893;59.754;10.110;2023-02-04T12:21:21;6.10;;;4.00;;
65289;SDS011;51893;59.754;10.110;2023-02-04T12:23:49;6.50;;;4.10;;
65289;SDS011;51893;59.754;10.110;2023-02-04T12:26:20;5.60;;;4.00;;
65289;SDS011;51893;59.754;10.110;2023-02-04T12:28:48;8.70;;;4.10;;
65289;SDS011;51893;59.754;10.110;2023-02-04T12:31:16;7.80;;;4.60;;
65289;SDS011;51893;59.754;10.110;2023-02-04T12:33:45;6.50;;;3.70;;
65289;SDS011;51893;59.754;10.110;2023-02-04T12:36:14;9.20;;;4.80;;
65289;SDS011;51893;59.754;10.110;2023-02-04T12:38:42;7.00;;;4.60;;
65289;SDS011;51893;59.754;10.110;2023-02-04T12:41:10;8.70;;;4.70;;
65289;SDS011;51893;59.754;10.110;2023-02-04T12:43:40;7.70;;;4.20;;
65289;SDS011;51893;59.754;10.110;2023-02-04T12:46:08;9.70;;;5.00;;
65289;SDS011;51893;59.754;10.110;2023-02-04T12:48:36;11.70;;;5.10;;
65289;SDS011;51893;59.754;10.110;2023-02-04T12:51:08;10.40;;;5.60;;
65289;SDS011;51893;59.754;10.110;2023-02-04T12:53:39;5.40;;;3.70;;
65289;SDS011;51893;59.754;10.110;2023-02-04T12:56:07;3.80;;;2.40;;
65289;SDS011;51893;59.754;10.110;2023-02-04T12:58:35;5.70;;;2.90;;
65289;SDS011;51893;59.754;10.110;2023-02-04T13:01:03;8.50;;;4.00;;
65289;SDS011;51893;59.754;10.110;2023-02-04T13:03:33;12.10;;;5.30;;
65289;SDS011;51893;59.754;10.110;2023-02-04T13:06:01;13.90;;;6.80;;
65289;SDS011;51893;59.754;10.110;2023-02-04T13:08:30;21.70;;;7.40;;
65289;SDS011;51893;59.754;10.110;2023-02-04T13:10:59;17.90;;;7.20;;
65289;SDS011;51893;59.754;10.110;2023-02-04T13:13:27;12.30;;;5.90;;
65289;SDS011;51893;59.754;10.110;2023-02-04T13:15:55;10.30;;;5.70;;
65289;SDS011;51893;59.754;10.110;2023-02-04T13:18:23;9.70;;;5.00;;
65289;SDS011;51893;59.754;10.110;2023-02-04T13:20:51;11.40;;;5.30;;
65289;SDS011;51893;59.754;10.110;2023-02-04T13:23:19;8.30;;;5.70;;
65289;SDS011;51893;59.754;10.110;2023-02-04T13:25:47;12.70;;;6.20;;
65289;SDS011;51893;59.754;10.110;2023-02-04T13:28:15;9.00;;;4.60;;
65289;SDS011;51893;59.754;10.110;2023-02-04T13:30:43;13.10;;;5.50;;
65289;SDS011;51893;59.754;10.110;2023-02-04T13:33:10;9.70;;;5.10;;
65289;SDS011;51893;59.754;10.110;2023-02-04T13:35:39;12.30;;;5.50;;
65289;SDS011;51893;59.754;10.110;2023-02-04T13:38:07;7.60;;;4.10;;
65289;SDS011;51893;59.754;10.110;2023-02-04T13:40:35;9.20;;;5.10;;
65289;SDS011;51893;59.754;10.110;2023-02-04T13:43:03;15.40;;;5.70;;
65289;SDS011;51893;59.754;10.110;2023-02-04T13:45:32;18.10;;;6.60;;
65289;SDS011;51893;59.754;10.110;2023-02-04T13:48:00;10.30;;;5.10;;
65289;SDS011;51893;59.754;10.110;2023-02-04T13:50:28;13.30;;;6.50;;
65289;SDS011;51893;59.754;10.110;2023-02-04T13:52:57;10.90;;;5.00;;
65289;SDS011;51893;59.754;10.110;2023-02-04T13:55:25;13.10;;;5.80;;
65289;SDS011;51893;59.754;10.110;2023-02-04T13:57:54;10.50;;;4.60;;
65289;SDS011;51893;59.754;10.110;2023-02-04T14:00:22;10.80;;;4.60;;
65289;SDS011;51893;59.754;10.110;2023-02-04T14:02:50;9.50;;;5.50;;
65289;SDS011;51893;59.754;10.110;2023-02-04T14:05:18;8.70;;;5.30;;
65289;SDS011;51893;59.754;10.110;2023-02-04T14:07:46;10.10;;;5.50;;
65289;SDS011;51893;59.754;10.110;2023-02-04T14:10:15;8.90;;;5.40;;
65289;SDS011;51893;59.754;10.110;2023-02-04T14:12:46;8.40;;;5.70;;
65289;SDS011;51893;59.754;10.110;2023-02-04T14:15:15;9.10;;;5.40;;
65289;SDS011;51893;59.754;10.110;2023-02-04T14:17:43;16.80;;;6.50;;
65289;SDS011;51893;59.754;10.110;2023-02-04T14:20:11;7.50;;;5.10;;
65289;SDS011;51893;59.754;10.110;2023-02-04T14:22:39;7.50;;;5.30;;
65289;SDS011;51893;59.754;10.110;2023-02-04T14:25:07;9.70;;;5.60;;
65289;SDS011;51893;59.754;10.110;2023-02-04T14:27:37;7.50;;;4.30;;
65289;SDS011;51893;59.754;10.110;2023-02-04T14:30:21;8.00;;;5.30;;
65289;SDS011;51893;59.754;10.110;2023-02-04T14:32:52;5.30;;;3.20;;
65289;SDS011;51893;59.754;10.110;2023-02-04T14:35:20;11.40;;;5.60;;
65289;SDS011;51893;59.754;10.110;2023-02-04T14:37:49;7.30;;;4.60;;
65289;SDS011;51893;59.754;10.110;2023-02-04T14:40:18;9.10;;;5.10;;
65289;SDS011;51893;59.754;10.110;2023-02-04T14:42:47;10.40;;;5.80;;
65289;SDS011;51893;59.754;10.110;2023-02-04T14:45:17;10.30;;;5.70;;
65289;SDS011;51893;59.754;10.110;2023-02-04T14:47:47;10.70;;;5.50;;
65289;SDS011;51893;59.754;10.110;2023-02-04T14:50:15;11.10;;;5.80;;
65289;SDS011;51893;59.754;10.110;2023-02-04T14:52:45;14.20;;;6.70;;
65289;SDS011;51893;59.754;10.110;2023-02-04T14:55:13;10.40;;;6.30;;
65289;SDS011;51893;59.754;10.110;2023-02-04T14:57:44;8.70;;;5.00;;
65289;SDS011;51893;59.754;10.110;2023-02-04T15:00:12;10.60;;;6.10;;
65289;SDS011;51893;59.754;10.110;2023-02-04T15:02:44;10.10;;;5.90;;